createdAt,value
2023-05-08T00:01:30.715Z,8.21
2023-05-08T00:03:57.990Z,8.29
2023-05-08T00:06:24.832Z,8.07
2023-05-08T00:08:51.669Z,7.85
2023-05-08T00:11:18.318Z,8.05
2023-05-08T00:13:45.074Z,7.97
2023-05-08T00:16:12.467Z,7.95
2023-05-08T00:18:39.348Z,7.98
2023-05-08T00:21:06.185Z,7.97
2023-05-08T00:23:33.332Z,8.05
2023-05-08T00:26:00.286Z,8.09
2023-05-08T00:28:27.023Z,8.14
2023-05-08T00:30:53.853Z,7.49
2023-05-08T00:33:20.610Z,7.52
2023-05-08T00:35:47.331Z,7.50
2023-05-08T00:38:14.001Z,7.64
2023-05-08T00:40:41.023Z,7.68
2023-05-08T00:43:07.758Z,7.54
2023-05-08T00:45:36.546Z,7.53
2023-05-08T00:48:03.545Z,7.50
2023-05-08T00:50:31.665Z,7.77
2023-05-08T00:52:58.536Z,7.85
2023-05-08T00:55:25.256Z,7.83
2023-05-08T00:57:52.295Z,7.86
2023-05-08T01:00:19.000Z,7.67
2023-05-08T01:02:45.669Z,7.07
2023-05-08T01:05:12.442Z,6.97
2023-05-08T01:07:39.254Z,6.85
2023-05-08T01:10:07.023Z,7.16
2023-05-08T01:12:53.520Z,7.57
2023-05-08T01:16:07.260Z,7.55
2023-05-08T01:18:38.700Z,7.42
2023-05-08T01:21:14.458Z,7.48
2023-05-08T01:24:24.814Z,7.31
2023-05-08T01:27:31.105Z,7.21
2023-05-08T01:30:15.145Z,7.15
2023-05-08T01:32:43.725Z,7.43
2023-05-08T01:35:21.096Z,7.47
2023-05-08T01:38:00.119Z,7.58
2023-05-08T01:41:06.493Z,7.33
2023-05-08T01:43:36.634Z,7.34
2023-05-08T01:46:08.504Z,7.58
2023-05-08T01:48:35.418Z,7.58
2023-05-08T01:51:07.009Z,7.73
2023-05-08T01:53:51.773Z,7.71
2023-05-08T01:56:23.525Z,7.66
2023-05-08T01:58:52.224Z,7.38
2023-05-08T02:01:22.348Z,7.37
2023-05-08T02:03:49.394Z,7.38
2023-05-08T02:06:18.646Z,7.38
2023-05-08T02:08:45.727Z,7.49
2023-05-08T02:11:13.136Z,7.41
2023-05-08T02:13:39.878Z,7.48
2023-05-08T02:16:07.930Z,7.55
2023-05-08T02:18:34.743Z,7.50
2023-05-08T02:21:02.557Z,7.34
2023-05-08T02:23:29.515Z,7.45
2023-05-08T02:25:56.167Z,7.27
2023-05-08T02:28:23.367Z,6.97
2023-05-08T02:30:50.678Z,6.87
2023-05-08T02:33:17.884Z,6.92
2023-05-08T02:35:44.681Z,6.87
2023-05-08T02:38:12.081Z,6.83
2023-05-08T02:40:41.894Z,6.82
2023-05-08T02:43:08.531Z,7.01
2023-05-08T02:46:09.857Z,7.18
2023-05-08T02:48:41.518Z,6.93
2023-05-08T02:51:27.558Z,6.87
2023-05-08T02:53:59.202Z,6.65
2023-05-08T02:56:49.827Z,6.67
2023-05-08T02:59:19.838Z,6.81
2023-05-08T03:01:58.937Z,6.70
2023-05-08T03:04:29.662Z,6.90
2023-05-08T03:06:56.448Z,6.91
2023-05-08T03:09:25.660Z,6.86
2023-05-08T03:11:59.816Z,6.72
2023-05-08T03:14:26.647Z,6.60
2023-05-08T03:16:53.279Z,6.81
2023-05-08T03:19:29.957Z,6.81
2023-05-08T03:21:56.586Z,6.69
2023-05-08T03:24:23.337Z,6.55
2023-05-08T03:26:50.271Z,6.35
2023-05-08T03:29:17.017Z,6.80
2023-05-08T03:31:43.992Z,7.08
2023-05-08T03:34:12.332Z,7.19
2023-05-08T03:36:39.296Z,6.85
2023-05-08T03:39:07.082Z,6.58
2023-05-08T03:41:33.985Z,6.96
2023-05-08T03:44:00.625Z,7.22
2023-05-08T03:46:27.433Z,7.32
2023-05-08T03:48:56.042Z,7.51
2023-05-08T03:51:22.792Z,7.76
2023-05-08T03:53:50.548Z,7.82
2023-05-08T03:56:17.694Z,7.98
2023-05-08T03:58:56.461Z,8.09
2023-05-08T04:02:00.261Z,7.61
2023-05-08T04:04:39.955Z,7.49
2023-05-08T04:07:27.472Z,7.64
2023-05-08T04:10:08.375Z,7.93
2023-05-08T04:13:10.315Z,8.08
2023-05-08T04:16:03.024Z,8.08
2023-05-08T04:18:30.043Z,8.21
2023-05-08T04:20:58.367Z,7.86
2023-05-08T04:23:26.688Z,8.29
2023-05-08T04:25:53.425Z,8.33
2023-05-08T04:28:20.374Z,8.44
2023-05-08T04:30:47.159Z,8.19
2023-05-08T04:33:14.454Z,7.92
2023-05-08T04:35:41.751Z,8.20
2023-05-08T04:38:08.727Z,8.66
2023-05-08T04:40:35.709Z,8.86
2023-05-08T04:43:02.754Z,9.02
2023-05-08T04:45:29.926Z,9.19
2023-05-08T04:47:56.900Z,9.10
2023-05-08T04:50:24.359Z,9.30
2023-05-08T04:52:51.246Z,9.04
2023-05-08T04:55:18.120Z,8.89
2023-05-08T04:57:45.218Z,9.07
2023-05-08T05:00:13.305Z,8.99
2023-05-08T05:02:40.883Z,9.18
2023-05-08T05:05:08.122Z,9.09
2023-05-08T05:07:35.230Z,9.32
2023-05-08T05:10:02.210Z,9.35
2023-05-08T05:12:29.256Z,9.25
2023-05-08T05:14:55.989Z,9.23
2023-05-08T05:17:23.256Z,9.39
2023-05-08T05:19:51.520Z,9.73
2023-05-08T05:22:19.870Z,9.99
2023-05-08T05:24:46.531Z,9.54
2023-05-08T05:27:13.486Z,8.86
2023-05-08T05:29:40.527Z,9.22
2023-05-08T05:32:09.566Z,9.83
2023-05-08T05:34:36.786Z,10.12
2023-05-08T05:37:04.390Z,9.57
2023-05-08T05:39:31.066Z,9.39
2023-05-08T05:41:58.317Z,9.86
2023-05-08T05:44:25.157Z,10.35
2023-05-08T05:46:52.038Z,10.70
2023-05-08T05:49:18.960Z,10.11
2023-05-08T05:51:45.580Z,9.97
2023-05-08T05:54:14.051Z,10.52
2023-05-08T05:56:40.836Z,11.18
2023-05-08T05:59:08.279Z,11.36
2023-05-08T06:01:35.062Z,11.29
2023-05-08T06:04:01.889Z,12.11
2023-05-08T06:06:29.414Z,12.85
2023-05-08T06:08:56.051Z,13.25
2023-05-08T06:11:23.433Z,13.36
2023-05-08T06:13:50.665Z,13.20
2023-05-08T06:16:20.374Z,12.75
2023-05-08T06:18:47.004Z,12.34
2023-05-08T06:21:13.655Z,11.65
2023-05-08T06:23:42.195Z,11.03
2023-05-08T06:26:08.848Z,10.51
2023-05-08T06:28:35.429Z,9.85
2023-05-08T06:31:02.234Z,9.47
2023-05-08T06:33:29.369Z,9.42
2023-05-08T06:35:56.026Z,9.44
2023-05-08T06:38:22.686Z,9.30
2023-05-08T06:40:50.146Z,9.29
2023-05-08T06:43:16.753Z,9.61
2023-05-08T06:45:43.987Z,10.64
2023-05-08T06:48:10.646Z,11.18
2023-05-08T06:50:38.725Z,10.86
2023-05-08T06:53:05.516Z,10.97
2023-05-08T06:55:32.785Z,11.37
2023-05-08T06:57:59.363Z,11.68
2023-05-08T07:00:26.312Z,12.15
2023-05-08T07:02:53.141Z,12.04
2023-05-08T07:05:20.106Z,12.10
2023-05-08T07:07:47.014Z,12.24
2023-05-08T07:10:13.587Z,12.47
2023-05-08T07:12:40.421Z,12.78
2023-05-08T07:15:40.953Z,12.91
2023-05-08T07:17:56.214Z,13.01
2023-05-08T07:20:23.807Z,12.59
2023-05-08T07:22:50.426Z,12.09
2023-05-08T07:25:16.987Z,12.13
2023-05-08T07:27:43.678Z,12.20
2023-05-08T07:30:10.954Z,12.11
2023-05-08T07:32:38.696Z,12.26
2023-05-08T07:35:10.849Z,12.35
2023-05-08T07:37:40.870Z,13.04
2023-05-08T07:40:08.223Z,13.76
2023-05-08T07:42:41.497Z,13.86
2023-05-08T07:45:09.900Z,13.54
2023-05-08T07:47:36.729Z,13.17
2023-05-08T07:50:03.516Z,13.48
2023-05-08T07:52:30.088Z,13.70
2023-05-08T07:54:57.521Z,14.08
2023-05-08T07:57:24.475Z,14.56
2023-05-08T07:59:58.036Z,14.65
2023-05-08T08:02:26.652Z,14.76
2023-05-08T08:04:53.337Z,15.16
2023-05-08T08:07:20.402Z,15.98
2023-05-08T08:09:47.137Z,16.53
2023-05-08T08:12:23.188Z,16.67
2023-05-08T08:14:52.418Z,16.41
2023-05-08T08:17:19.235Z,16.43
2023-05-08T08:19:49.411Z,15.67
2023-05-08T08:22:16.154Z,15.11
2023-05-08T08:24:45.901Z,14.76
2023-05-08T08:27:12.841Z,14.70
2023-05-08T08:29:39.779Z,14.68
2023-05-08T08:32:09.329Z,14.46
2023-05-08T08:34:35.930Z,14.10
2023-05-08T08:37:06.156Z,13.50
2023-05-08T08:39:33.871Z,13.24
2023-05-08T08:42:01.162Z,13.24
2023-05-08T08:44:30.169Z,13.08
2023-05-08T08:46:58.717Z,12.86
2023-05-08T08:49:35.646Z,12.59
2023-05-08T08:52:34.733Z,12.67
2023-05-08T08:55:08.938Z,12.90
2023-05-08T08:57:52.226Z,13.15
2023-05-08T09:00:20.405Z,12.91
2023-05-08T09:02:47.157Z,12.63
2023-05-08T09:05:17.286Z,12.19
2023-05-08T09:07:44.079Z,11.82
2023-05-08T09:10:19.672Z,11.55
2023-05-08T09:12:47.472Z,11.66
2023-05-08T09:15:14.998Z,11.85
2023-05-08T09:17:41.891Z,12.14
2023-05-08T09:20:09.903Z,12.45
2023-05-08T09:22:39.145Z,12.80
2023-05-08T09:25:06.453Z,12.96
2023-05-08T09:27:34.060Z,12.74
2023-05-08T09:30:11.829Z,12.64
2023-05-08T09:32:44.334Z,12.45
2023-05-08T09:35:11.391Z,12.31
2023-05-08T09:37:45.868Z,12.24
2023-05-08T09:40:20.177Z,12.14
2023-05-08T09:42:48.088Z,12.32
2023-05-08T09:45:31.669Z,12.70
2023-05-08T09:47:58.787Z,13.18
2023-05-08T09:50:26.025Z,13.38
2023-05-08T09:52:52.663Z,13.35
2023-05-08T09:55:19.649Z,13.15
2023-05-08T09:57:57.007Z,12.92
2023-05-08T10:00:25.542Z,12.59
2023-05-08T10:03:02.297Z,12.27
2023-05-08T10:05:33.952Z,12.12
2023-05-08T10:08:21.973Z,12.21
2023-05-08T10:10:48.725Z,12.16
2023-05-08T10:13:15.332Z,12.11
2023-05-08T10:15:43.128Z,11.98
2023-05-08T10:18:11.396Z,11.86
2023-05-08T10:20:43.701Z,11.87
2023-05-08T10:23:14.200Z,12.20
2023-05-08T10:25:55.005Z,12.50
2023-05-08T10:28:40.713Z,12.73
2023-05-08T10:31:07.465Z,12.44
2023-05-08T10:33:34.861Z,12.28
2023-05-08T10:36:01.484Z,12.19
2023-05-08T10:38:28.132Z,12.06
2023-05-08T10:40:57.413Z,12.02
2023-05-08T10:43:24.791Z,12.10
2023-05-08T10:45:54.998Z,12.20
2023-05-08T10:48:40.790Z,12.41
2023-05-08T10:51:35.104Z,12.62
2023-05-08T10:54:41.058Z,12.82
2023-05-08T10:57:11.188Z,13.08
2023-05-08T10:59:37.886Z,13.29
2023-05-08T11:02:06.680Z,13.35
2023-05-08T11:04:33.715Z,13.22
2023-05-08T11:07:00.441Z,13.26
2023-05-08T11:09:42.524Z,13.49
2023-05-08T11:12:26.237Z,14.01
2023-05-08T11:15:06.078Z,14.38
2023-05-08T11:17:33.347Z,14.71
2023-05-08T11:20:12.417Z,15.36
2023-05-08T11:22:39.105Z,14.95
2023-05-08T11:25:06.522Z,14.42
2023-05-08T11:27:36.940Z,13.97
2023-05-08T11:30:34.036Z,13.41
2023-05-08T11:33:03.560Z,12.95
2023-05-08T11:35:42.558Z,12.63
2023-05-08T11:38:35.313Z,12.51
2023-05-08T11:41:06.544Z,12.54
2023-05-08T11:43:33.065Z,12.66
2023-05-08T11:46:01.477Z,12.74
2023-05-08T11:48:28.081Z,13.08
2023-05-08T11:50:54.824Z,13.20
2023-05-08T11:53:21.823Z,13.16
2023-05-08T11:55:49.248Z,13.20
2023-05-08T11:58:16.004Z,13.21
2023-05-08T12:00:44.749Z,13.21
2023-05-08T12:03:13.170Z,13.17
2023-05-08T12:05:40.156Z,13.18
2023-05-08T12:08:11.428Z,13.41
2023-05-08T12:10:56.942Z,13.70
2023-05-08T12:13:26.287Z,14.02
2023-05-08T12:15:55.098Z,14.23
2023-05-08T12:18:22.507Z,14.39
2023-05-08T12:20:59.699Z,14.37
2023-05-08T12:23:29.692Z,14.07
2023-05-08T12:26:00.194Z,14.05
2023-05-08T12:28:27.282Z,13.97
2023-05-08T12:30:53.930Z,13.74
2023-05-08T12:33:20.650Z,13.45
2023-05-08T12:35:47.217Z,13.26
2023-05-08T12:38:13.900Z,13.32
2023-05-08T12:40:45.743Z,13.38
2023-05-08T12:43:12.299Z,13.61
2023-05-08T12:45:40.658Z,13.50
2023-05-08T12:48:12.915Z,13.67
2023-05-08T12:50:41.735Z,13.80
2023-05-08T12:53:19.536Z,13.95
2023-05-08T12:55:57.054Z,13.91
2023-05-08T12:58:25.651Z,13.63
2023-05-08T13:00:52.661Z,13.67
2023-05-08T13:03:27.431Z,13.76
2023-05-08T13:05:55.926Z,13.73
2023-05-08T13:08:37.369Z,13.71
2023-05-08T13:11:05.739Z,13.80
2023-05-08T13:13:34.956Z,13.85
2023-05-08T13:16:06.207Z,13.94
2023-05-08T13:18:33.217Z,14.11
2023-05-08T13:21:01.403Z,14.34
2023-05-08T13:23:28.108Z,14.49
2023-05-08T13:25:55.111Z,14.55
2023-05-08T13:28:21.644Z,14.51
2023-05-08T13:30:48.331Z,14.38
2023-05-08T13:33:14.908Z,14.15
2023-05-08T13:35:41.495Z,13.88
2023-05-08T13:38:08.188Z,13.71
2023-05-08T13:40:34.835Z,13.75
2023-05-08T13:43:01.529Z,13.77
2023-05-08T13:45:28.185Z,13.79
2023-05-08T13:47:54.891Z,13.77
2023-05-08T13:50:21.718Z,13.71
2023-05-08T13:52:48.725Z,13.72
2023-05-08T13:55:16.190Z,13.80
2023-05-08T13:57:43.340Z,13.94
2023-05-08T14:00:11.402Z,14.09
2023-05-08T14:02:38.266Z,14.35
2023-05-08T14:05:07.572Z,14.67
2023-05-08T14:07:35.341Z,14.86
2023-05-08T14:10:02.497Z,14.79
2023-05-08T14:12:29.261Z,14.54
2023-05-08T14:14:55.998Z,14.41
2023-05-08T14:17:22.642Z,14.27
2023-05-08T14:19:49.371Z,14.14
2023-05-08T14:22:16.197Z,13.97
2023-05-08T14:24:43.696Z,13.80
2023-05-08T14:27:10.709Z,13.61
2023-05-08T14:29:37.410Z,13.53
2023-05-08T14:32:04.783Z,13.51
2023-05-08T14:34:31.640Z,13.48
2023-05-08T14:36:58.274Z,13.36
2023-05-08T14:39:25.022Z,13.11
2023-05-08T14:42:14.391Z,12.94
2023-05-08T14:44:38.757Z,13.05
2023-05-08T14:47:06.117Z,13.14
2023-05-08T14:49:37.929Z,13.12
2023-05-08T14:52:06.366Z,13.24
2023-05-08T14:54:33.331Z,13.42
2023-05-08T14:57:00.298Z,13.67
2023-05-08T14:59:26.872Z,13.76
2023-05-08T15:01:53.585Z,14.05
2023-05-08T15:04:20.663Z,14.22
2023-05-08T15:06:47.519Z,14.31
2023-05-08T15:09:15.893Z,14.27
2023-05-08T15:11:42.730Z,14.07
2023-05-08T15:14:09.458Z,13.89
2023-05-08T15:16:36.156Z,13.71
2023-05-08T15:19:02.858Z,13.56
2023-05-08T15:21:29.736Z,13.44
2023-05-08T15:23:56.423Z,13.38
2023-05-08T15:26:23.122Z,13.36
2023-05-08T15:28:50.338Z,13.33
2023-05-08T15:31:17.699Z,13.28
2023-05-08T15:33:45.057Z,13.24
2023-05-08T15:36:13.153Z,13.19
2023-05-08T15:38:42.837Z,13.11
2023-05-08T15:41:14.321Z,13.02
2023-05-08T15:43:42.361Z,12.93
2023-05-08T15:46:09.257Z,12.79
2023-05-08T15:48:35.919Z,12.68
2023-05-08T15:51:02.677Z,12.67
2023-05-08T15:53:29.252Z,12.81
2023-05-08T15:55:56.347Z,13.07
2023-05-08T15:58:22.893Z,13.34
2023-05-08T16:00:49.501Z,13.58
2023-05-08T16:03:16.306Z,13.79
2023-05-08T16:05:43.156Z,13.91
2023-05-08T16:08:11.838Z,13.90
2023-05-08T16:10:39.021Z,13.82
2023-05-08T16:13:05.808Z,13.77
2023-05-08T16:15:32.765Z,13.68
2023-05-08T16:17:59.430Z,13.63
2023-05-08T16:20:26.114Z,13.48
2023-05-08T16:22:56.502Z,13.37
2023-05-08T16:25:23.295Z,13.17
2023-05-08T16:27:49.969Z,13.01
2023-05-08T16:30:17.488Z,12.85
2023-05-08T16:32:45.458Z,12.73
2023-05-08T16:35:12.403Z,12.61
2023-05-08T16:37:39.361Z,12.53
2023-05-08T16:40:07.503Z,12.48
2023-05-08T16:42:34.214Z,12.44
2023-05-08T16:45:00.781Z,12.49
2023-05-08T16:47:27.490Z,12.57
2023-05-08T16:49:54.818Z,12.63
2023-05-08T16:52:21.485Z,12.70
2023-05-08T16:54:48.320Z,12.75
2023-05-08T16:57:15.159Z,12.76
2023-05-08T16:59:41.829Z,12.78
2023-05-08T17:02:08.834Z,12.79
2023-05-08T17:04:35.803Z,12.76
2023-05-08T17:07:05.115Z,12.70
2023-05-08T17:09:32.621Z,12.64
2023-05-08T17:12:01.293Z,12.59
2023-05-08T17:14:27.793Z,12.54
2023-05-08T17:16:54.636Z,12.51
2023-05-08T17:19:21.241Z,12.45
2023-05-08T17:21:47.945Z,12.40
2023-05-08T17:24:14.467Z,12.34
2023-05-08T17:26:41.362Z,12.27
2023-05-08T17:29:08.110Z,12.16
2023-05-08T17:31:34.817Z,12.01
2023-05-08T17:34:01.768Z,11.84
2023-05-08T17:36:28.537Z,11.65
2023-05-08T17:38:55.217Z,11.45
2023-05-08T17:41:22.299Z,11.27
2023-05-08T17:43:49.041Z,11.08
2023-05-08T17:46:15.816Z,10.88
2023-05-08T17:48:42.836Z,10.68
2023-05-08T17:51:13.203Z,10.51
2023-05-08T17:53:39.976Z,10.34
2023-05-08T17:56:07.382Z,10.16
2023-05-08T17:58:34.046Z,9.98
2023-05-08T18:01:00.745Z,9.82
2023-05-08T18:03:27.568Z,9.69
2023-05-08T18:05:54.405Z,9.56
2023-05-08T18:08:21.563Z,9.44
2023-05-08T18:10:48.295Z,9.31
2023-05-08T18:13:15.368Z,9.20
2023-05-08T18:15:42.137Z,9.09
2023-05-08T18:18:09.142Z,8.99
2023-05-08T18:20:38.761Z,8.90
2023-05-08T18:23:05.383Z,8.81
2023-05-08T18:25:32.265Z,8.70
2023-05-08T18:27:59.861Z,8.60
2023-05-08T18:30:26.494Z,8.49
2023-05-08T18:32:53.133Z,8.40
2023-05-08T18:35:21.113Z,8.31
2023-05-08T18:37:47.857Z,8.15
2023-05-08T18:40:14.872Z,8.02
2023-05-08T18:42:41.841Z,7.90
2023-05-08T18:45:09.921Z,7.80
2023-05-08T18:47:36.815Z,7.72
2023-05-08T18:50:04.425Z,7.65
2023-05-08T18:52:31.048Z,7.58
2023-05-08T18:54:57.708Z,7.52
2023-05-08T18:57:24.533Z,7.46
2023-05-08T18:59:51.198Z,7.36
2023-05-08T19:02:17.914Z,7.26
2023-05-08T19:04:44.550Z,7.15
2023-05-08T19:07:11.282Z,7.02
2023-05-08T19:09:38.139Z,6.91
2023-05-08T19:12:05.066Z,6.84
2023-05-08T19:14:31.803Z,6.81
2023-05-08T19:16:58.685Z,7.39
2023-05-08T19:19:25.612Z,8.39
2023-05-08T19:21:52.275Z,9.15
2023-05-08T19:24:20.205Z,9.67
2023-05-08T19:26:47.042Z,10.05
2023-05-08T19:29:13.796Z,10.36
2023-05-08T19:31:40.437Z,10.63
2023-05-08T19:34:07.102Z,10.86
2023-05-08T19:36:36.036Z,10.95
2023-05-08T19:39:04.435Z,10.31
2023-05-08T19:41:30.962Z,9.51
2023-05-08T19:43:57.699Z,8.86
2023-05-08T19:46:24.475Z,8.34
2023-05-08T19:48:51.274Z,7.92
2023-05-08T19:51:17.916Z,7.60
2023-05-08T19:53:44.549Z,7.31
2023-05-08T19:56:11.385Z,7.03
2023-05-08T19:58:38.010Z,6.79
2023-05-08T20:01:04.985Z,6.55
2023-05-08T20:03:31.924Z,6.34
2023-05-08T20:05:58.834Z,6.16
2023-05-08T20:08:25.541Z,5.99
2023-05-08T20:10:52.346Z,5.83
2023-05-08T20:13:18.849Z,5.70
2023-05-08T20:15:45.766Z,5.59
2023-05-08T20:18:12.554Z,5.49
2023-05-08T20:20:39.203Z,5.57
2023-05-08T20:23:05.837Z,6.41
2023-05-08T20:25:32.569Z,7.30
2023-05-08T20:27:59.209Z,7.94
2023-05-08T20:30:26.388Z,8.41
2023-05-08T20:32:53.346Z,8.82
2023-05-08T20:35:20.348Z,9.13
2023-05-08T20:37:47.351Z,9.39
2023-05-08T20:40:14.320Z,9.61
2023-05-08T20:42:41.392Z,9.79
2023-05-08T20:45:09.104Z,9.91
2023-05-08T20:47:35.965Z,9.38
2023-05-08T20:50:03.546Z,8.51
2023-05-08T20:52:31.723Z,7.81
2023-05-08T20:54:59.022Z,7.28
2023-05-08T20:57:25.710Z,6.82
2023-05-08T20:59:52.168Z,6.43
2023-05-08T21:02:18.983Z,6.09
2023-05-08T21:04:45.633Z,5.78
2023-05-08T21:07:12.612Z,5.48
2023-05-08T21:09:39.201Z,5.23
2023-05-08T21:12:06.562Z,5.07
2023-05-08T21:14:34.525Z,5.60
2023-05-08T21:17:01.301Z,6.53
2023-05-08T21:19:29.391Z,7.17
2023-05-08T21:21:56.074Z,7.64
2023-05-08T21:24:23.224Z,7.99
2023-05-08T21:26:49.990Z,8.28
2023-05-08T21:29:17.020Z,8.48
2023-05-08T21:31:43.890Z,8.69
2023-05-08T21:34:10.798Z,8.85
2023-05-08T21:36:37.549Z,8.43
2023-05-08T21:39:04.486Z,7.55
2023-05-08T21:41:32.399Z,6.77
2023-05-08T21:43:59.092Z,6.18
2023-05-08T21:46:25.708Z,5.74
2023-05-08T21:48:52.362Z,5.41
2023-05-08T21:51:18.911Z,5.12
2023-05-08T21:53:45.619Z,4.83
2023-05-08T21:56:12.277Z,4.54
2023-05-08T21:58:38.909Z,4.30
2023-05-08T22:01:05.739Z,4.10
2023-05-08T22:03:32.565Z,3.91
2023-05-08T22:05:59.533Z,3.78
2023-05-08T22:08:26.275Z,4.21
2023-05-08T22:10:53.022Z,5.22
2023-05-08T22:13:19.930Z,6.00
2023-05-08T22:15:46.796Z,6.53
2023-05-08T22:18:13.951Z,6.90
2023-05-08T22:20:40.629Z,7.20
2023-05-08T22:23:07.262Z,7.41
2023-05-08T22:25:33.974Z,7.59
2023-05-08T22:28:00.910Z,7.75
2023-05-08T22:30:27.751Z,7.29
2023-05-08T22:32:56.601Z,6.45
2023-05-08T22:35:25.088Z,5.75
2023-05-08T22:37:52.375Z,5.24
2023-05-08T22:40:20.851Z,4.84
2023-05-08T22:42:47.646Z,4.51
2023-05-08T22:45:14.413Z,4.21
2023-05-08T22:47:41.369Z,3.94
2023-05-08T22:50:08.721Z,3.69
2023-05-08T22:52:36.140Z,3.49
2023-05-08T22:55:03.738Z,3.30
2023-05-08T22:57:30.537Z,3.13
2023-05-08T22:59:57.325Z,3.06
2023-05-08T23:02:24.280Z,3.86
2023-05-08T23:04:51.054Z,4.97
2023-05-08T23:07:17.642Z,5.64
2023-05-08T23:09:44.389Z,6.11
2023-05-08T23:12:11.038Z,6.55
2023-05-08T23:14:37.658Z,6.93
2023-05-08T23:17:04.760Z,7.17
2023-05-08T23:19:31.437Z,7.34
2023-05-08T23:21:58.046Z,7.10
2023-05-08T23:24:25.454Z,6.22
2023-05-08T23:26:52.986Z,5.45
2023-05-08T23:29:19.829Z,4.89
2023-05-08T23:31:46.512Z,4.44
2023-05-08T23:34:13.301Z,4.07
2023-05-08T23:36:40.054Z,3.75
2023-05-08T23:39:06.921Z,3.46
2023-05-08T23:41:33.508Z,3.22
2023-05-08T23:44:00.201Z,3.00
2023-05-08T23:46:27.155Z,2.79
2023-05-08T23:48:53.848Z,2.64
2023-05-08T23:51:21.102Z,3.18
2023-05-08T23:53:48.450Z,4.27
2023-05-08T23:56:15.497Z,5.00
2023-05-08T23:58:42.035Z,5.50
